Waynesburg, Ohio
Current Conditions -  °F | °C
As of 1:53 PM on Thursday 30 Oct 2014 (Local Time) from KPHD Reporting Station
Overcast Overcast  
Wind Chill: 45°   Ceiling: 4100
Heat Index: 48°   Visibility: 10mi
Dew Point: 37°   Wind: 7mph
Humidity: 66%   Direction: 290°WNW
Pressure: 30.11"   Gusts: NA
Location:  40.67°N, 81.26°W
Report Text: KPHD 301753Z AUTO 29006KT 10SM FEW030 OVC041 09/03 A3011 RMK AO2 SLP201 T00890028 10111 20011 58009
Loading
Personal Weather Stations






























Interactive Weather Map New forecast layout! Learn more

10-Day Weather Forecast

Advertisements
Track Severe Weather on mobile